sensor_id;sensor_type;location;lat;lon;timestamp;temperature;humidity
4530;DHT22;2277;51.626;7.516;2023-04-03T00:01:13;6.20;99.90
4530;DHT22;2277;51.626;7.516;2023-04-03T00:03:39;6.20;99.90
4530;DHT22;2277;51.626;7.516;2023-04-03T00:06:07;6.20;99.90
4530;DHT22;2277;51.626;7.516;2023-04-03T00:08:34;6.20;99.90
4530;DHT22;2277;51.626;7.516;2023-04-03T00:11:01;6.20;99.90
4530;DHT22;2277;51.626;7.516;2023-04-03T00:13:27;6.20;99.90
4530;DHT22;2277;51.626;7.516;2023-04-03T00:15:53;6.10;99.90
4530;DHT22;2277;51.626;7.516;2023-04-03T00:18:19;6.10;99.90
4530;DHT22;2277;51.626;7.516;2023-04-03T00:20:45;6.20;99.90
4530;DHT22;2277;51.626;7.516;2023-04-03T00:23:10;6.10;99.90
4530;DHT22;2277;51.626;7.516;2023-04-03T00:25:37;6.10;99.90
4530;DHT22;2277;51.626;7.516;2023-04-03T00:28:03;6.10;99.90
4530;DHT22;2277;51.626;7.516;2023-04-03T00:30:29;6.00;99.90
4530;DHT22;2277;51.626;7.516;2023-04-03T00:32:55;6.00;99.90
4530;DHT22;2277;51.626;7.516;2023-04-03T00:35:22;6.00;99.90
4530;DHT22;2277;51.626;7.516;2023-04-03T00:37:50;6.00;99.90
4530;DHT22;2277;51.626;7.516;2023-04-03T00:40:16;6.00;99.90
4530;DHT22;2277;51.626;7.516;2023-04-03T00:42:43;5.90;99.90
4530;DHT22;2277;51.626;7.516;2023-04-03T00:47:41;5.90;99.90
4530;DHT22;2277;51.626;7.516;2023-04-03T00:50:07;5.90;99.90
4530;DHT22;2277;51.626;7.516;2023-04-03T00:52:33;5.90;99.90
4530;DHT22;2277;51.626;7.516;2023-04-03T00:55:03;5.80;99.90
4530;DHT22;2277;51.626;7.516;2023-04-03T00:57:30;5.80;99.90
4530;DHT22;2277;51.626;7.516;2023-04-03T01:00:09;5.80;99.90
4530;DHT22;2277;51.626;7.516;2023-04-03T01:02:35;5.80;99.90
4530;DHT22;2277;51.626;7.516;2023-04-03T01:05:02;5.80;99.90
4530;DHT22;2277;51.626;7.516;2023-04-03T01:07:30;5.80;99.90
4530;DHT22;2277;51.626;7.516;2023-04-03T01:09:58;5.80;99.90
4530;DHT22;2277;51.626;7.516;2023-04-03T01:12:29;5.80;99.90
4530;DHT22;2277;51.626;7.516;2023-04-03T01:14:58;5.70;99.90
4530;DHT22;2277;51.626;7.516;2023-04-03T01:25:37;5.70;99.90
4530;DHT22;2277;51.626;7.516;2023-04-03T01:28:04;5.60;99.90
4530;DHT22;2277;51.626;7.516;2023-04-03T01:30:34;5.60;99.90
4530;DHT22;2277;51.626;7.516;2023-04-03T01:33:02;5.60;99.90
4530;DHT22;2277;51.626;7.516;2023-04-03T01:35:27;5.60;99.90
4530;DHT22;2277;51.626;7.516;2023-04-03T01:37:53;5.60;99.90
4530;DHT22;2277;51.626;7.516;2023-04-03T01:40:19;5.60;99.90
4530;DHT22;2277;51.626;7.516;2023-04-03T01:42:45;5.50;99.90
4530;DHT22;2277;51.626;7.516;2023-04-03T01:45:10;5.50;99.90
4530;DHT22;2277;51.626;7.516;2023-04-03T01:47:36;5.50;99.90
4530;DHT22;2277;51.626;7.516;2023-04-03T01:50:02;5.50;99.90
4530;DHT22;2277;51.626;7.516;2023-04-03T01:52:28;5.50;99.90
4530;DHT22;2277;51.626;7.516;2023-04-03T01:54:53;5.40;99.90
4530;DHT22;2277;51.626;7.516;2023-04-03T01:57:19;5.30;99.90
4530;DHT22;2277;51.626;7.516;2023-04-03T01:59:45;5.30;99.90
4530;DHT22;2277;51.626;7.516;2023-04-03T02:02:10;5.30;99.90
4530;DHT22;2277;51.626;7.516;2023-04-03T02:04:37;5.20;99.90
4530;DHT22;2277;51.626;7.516;2023-04-03T02:07:03;5.20;99.90
4530;DHT22;2277;51.626;7.516;2023-04-03T02:09:29;5.30;99.90
4530;DHT22;2277;51.626;7.516;2023-04-03T02:11:54;5.20;99.90
4530;DHT22;2277;51.626;7.516;2023-04-03T02:14:20;5.20;99.90
4530;DHT22;2277;51.626;7.516;2023-04-03T02:16:47;5.20;99.90
4530;DHT22;2277;51.626;7.516;2023-04-03T02:19:12;5.20;99.90
4530;DHT22;2277;51.626;7.516;2023-04-03T02:21:38;5.10;99.90
4530;DHT22;2277;51.626;7.516;2023-04-03T02:24:04;5.10;99.90
4530;DHT22;2277;51.626;7.516;2023-04-03T02:26:30;5.10;99.90
4530;DHT22;2277;51.626;7.516;2023-04-03T02:28:56;5.10;99.90
4530;DHT22;2277;51.626;7.516;2023-04-03T02:31:22;5.00;99.90
4530;DHT22;2277;51.626;7.516;2023-04-03T02:33:48;5.00;99.90
4530;DHT22;2277;51.626;7.516;2023-04-03T02:36:13;5.00;99.90
4530;DHT22;2277;51.626;7.516;2023-04-03T02:38:39;4.90;99.90
4530;DHT22;2277;51.626;7.516;2023-04-03T02:41:07;4.90;99.90
4530;DHT22;2277;51.626;7.516;2023-04-03T02:43:34;4.80;99.90
4530;DHT22;2277;51.626;7.516;2023-04-03T02:45:59;4.80;99.90
4530;DHT22;2277;51.626;7.516;2023-04-03T02:48:25;4.80;99.90
4530;DHT22;2277;51.626;7.516;2023-04-03T02:50:51;4.80;99.90
4530;DHT22;2277;51.626;7.516;2023-04-03T02:53:17;4.80;99.90
4530;DHT22;2277;51.626;7.516;2023-04-03T02:55:44;4.80;99.90
4530;DHT22;2277;51.626;7.516;2023-04-03T02:58:09;4.80;99.90
4530;DHT22;2277;51.626;7.516;2023-04-03T03:00:35;4.80;99.90
4530;DHT22;2277;51.626;7.516;2023-04-03T03:03:01;4.70;99.90
4530;DHT22;2277;51.626;7.516;2023-04-03T03:05:27;4.80;99.90
4530;DHT22;2277;51.626;7.516;2023-04-03T03:07:53;4.60;99.90
4530;DHT22;2277;51.626;7.516;2023-04-03T03:10:19;4.50;99.90
4530;DHT22;2277;51.626;7.516;2023-04-03T03:12:45;4.50;99.90
4530;DHT22;2277;51.626;7.516;2023-04-03T03:15:11;4.50;99.90
4530;DHT22;2277;51.626;7.516;2023-04-03T03:17:37;4.60;99.90
4530;DHT22;2277;51.626;7.516;2023-04-03T03:20:04;4.60;99.90
4530;DHT22;2277;51.626;7.516;2023-04-03T03:22:30;4.50;99.90
4530;DHT22;2277;51.626;7.516;2023-04-03T03:24:55;4.50;99.90
4530;DHT22;2277;51.626;7.516;2023-04-03T03:27:21;4.40;99.90
4530;DHT22;2277;51.626;7.516;2023-04-03T03:29:47;4.30;99.90
4530;DHT22;2277;51.626;7.516;2023-04-03T03:32:12;4.30;99.90
4530;DHT22;2277;51.626;7.516;2023-04-03T03:34:38;4.20;99.90
4530;DHT22;2277;51.626;7.516;2023-04-03T03:37:03;4.30;99.90
4530;DHT22;2277;51.626;7.516;2023-04-03T03:39:29;4.30;99.90
4530;DHT22;2277;51.626;7.516;2023-04-03T03:41:55;4.30;99.90
4530;DHT22;2277;51.626;7.516;2023-04-03T03:44:21;4.30;99.90
4530;DHT22;2277;51.626;7.516;2023-04-03T03:46:47;4.20;99.90
4530;DHT22;2277;51.626;7.516;2023-04-03T03:49:12;4.30;99.90
4530;DHT22;2277;51.626;7.516;2023-04-03T03:51:38;4.20;99.90
4530;DHT22;2277;51.626;7.516;2023-04-03T03:54:04;4.20;99.90
4530;DHT22;2277;51.626;7.516;2023-04-03T03:56:31;4.20;99.90
4530;DHT22;2277;51.626;7.516;2023-04-03T03:58:56;4.20;99.90
4530;DHT22;2277;51.626;7.516;2023-04-03T04:01:23;4.10;99.90
4530;DHT22;2277;51.626;7.516;2023-04-03T04:03:49;4.10;99.90
4530;DHT22;2277;51.626;7.516;2023-04-03T04:06:15;4.20;99.90
4530;DHT22;2277;51.626;7.516;2023-04-03T04:08:41;4.20;99.90
4530;DHT22;2277;51.626;7.516;2023-04-03T04:11:07;4.10;99.90
4530;DHT22;2277;51.626;7.516;2023-04-03T04:13:33;4.20;99.90
4530;DHT22;2277;51.626;7.516;2023-04-03T04:15:59;4.10;99.90
4530;DHT22;2277;51.626;7.516;2023-04-03T04:18:25;4.20;99.90
4530;DHT22;2277;51.626;7.516;2023-04-03T04:20:50;4.10;99.90
4530;DHT22;2277;51.626;7.516;2023-04-03T04:23:17;4.10;99.90
4530;DHT22;2277;51.626;7.516;2023-04-03T04:25:45;4.10;99.90
4530;DHT22;2277;51.626;7.516;2023-04-03T04:28:11;4.10;99.90
4530;DHT22;2277;51.626;7.516;2023-04-03T04:30:36;4.00;99.90
4530;DHT22;2277;51.626;7.516;2023-04-03T04:33:02;4.00;99.90
4530;DHT22;2277;51.626;7.516;2023-04-03T04:35:28;4.00;99.90
4530;DHT22;2277;51.626;7.516;2023-04-03T04:37:54;4.00;99.90
4530;DHT22;2277;51.626;7.516;2023-04-03T04:40:20;4.00;99.90
4530;DHT22;2277;51.626;7.516;2023-04-03T04:42:46;3.90;99.90
4530;DHT22;2277;51.626;7.516;2023-04-03T04:45:11;3.90;99.90
4530;DHT22;2277;51.626;7.516;2023-04-03T04:47:37;3.90;99.90
4530;DHT22;2277;51.626;7.516;2023-04-03T04:50:03;3.90;99.90
4530;DHT22;2277;51.626;7.516;2023-04-03T04:52:29;3.80;99.90
4530;DHT22;2277;51.626;7.516;2023-04-03T04:54:54;3.80;99.90
4530;DHT22;2277;51.626;7.516;2023-04-03T04:57:20;3.80;99.90
4530;DHT22;2277;51.626;7.516;2023-04-03T04:59:45;3.80;99.90
4530;DHT22;2277;51.626;7.516;2023-04-03T05:02:11;3.80;99.90
4530;DHT22;2277;51.626;7.516;2023-04-03T05:04:36;3.80;99.90
4530;DHT22;2277;51.626;7.516;2023-04-03T05:07:02;3.80;99.90
4530;DHT22;2277;51.626;7.516;2023-04-03T05:09:28;3.70;99.90
4530;DHT22;2277;51.626;7.516;2023-04-03T05:11:53;3.70;99.90
4530;DHT22;2277;51.626;7.516;2023-04-03T05:14:19;3.70;99.90
4530;DHT22;2277;51.626;7.516;2023-04-03T05:16:45;3.70;99.90
4530;DHT22;2277;51.626;7.516;2023-04-03T05:19:10;3.70;99.90
4530;DHT22;2277;51.626;7.516;2023-04-03T05:21:36;3.60;99.90
4530;DHT22;2277;51.626;7.516;2023-04-03T05:24:02;3.60;99.90
4530;DHT22;2277;51.626;7.516;2023-04-03T05:26:29;3.60;99.90
4530;DHT22;2277;51.626;7.516;2023-04-03T05:28:55;3.60;99.90
4530;DHT22;2277;51.626;7.516;2023-04-03T05:31:21;3.60;99.90
4530;DHT22;2277;51.626;7.516;2023-04-03T05:33:46;3.50;99.90
4530;DHT22;2277;51.626;7.516;2023-04-03T05:36:12;3.50;99.90
4530;DHT22;2277;51.626;7.516;2023-04-03T05:38:38;3.50;99.90
4530;DHT22;2277;51.626;7.516;2023-04-03T05:41:04;3.50;99.90
4530;DHT22;2277;51.626;7.516;2023-04-03T05:43:30;3.50;99.90
4530;DHT22;2277;51.626;7.516;2023-04-03T05:45:56;3.50;99.90
4530;DHT22;2277;51.626;7.516;2023-04-03T05:48:21;3.50;99.90
4530;DHT22;2277;51.626;7.516;2023-04-03T05:50:47;3.50;99.90
4530;DHT22;2277;51.626;7.516;2023-04-03T05:53:21;3.50;99.90
4530;DHT22;2277;51.626;7.516;2023-04-03T05:55:47;3.50;99.90
4530;DHT22;2277;51.626;7.516;2023-04-03T05:58:13;3.40;99.90
4530;DHT22;2277;51.626;7.516;2023-04-03T06:00:39;3.40;99.90
4530;DHT22;2277;51.626;7.516;2023-04-03T06:03:05;3.40;99.90
4530;DHT22;2277;51.626;7.516;2023-04-03T06:05:31;3.40;99.90
4530;DHT22;2277;51.626;7.516;2023-04-03T06:07:57;3.40;99.90
4530;DHT22;2277;51.626;7.516;2023-04-03T06:10:23;3.50;99.90
4530;DHT22;2277;51.626;7.516;2023-04-03T06:12:49;3.50;99.90
4530;DHT22;2277;51.626;7.516;2023-04-03T06:15:14;3.50;99.90
4530;DHT22;2277;51.626;7.516;2023-04-03T06:17:42;3.50;99.90
4530;DHT22;2277;51.626;7.516;2023-04-03T06:20:09;3.60;99.90
4530;DHT22;2277;51.626;7.516;2023-04-03T06:22:35;3.60;99.90
4530;DHT22;2277;51.626;7.516;2023-04-03T06:25:01;3.60;99.90
4530;DHT22;2277;51.626;7.516;2023-04-03T06:27:26;3.70;99.90
4530;DHT22;2277;51.626;7.516;2023-04-03T06:29:52;3.80;99.90
4530;DHT22;2277;51.626;7.516;2023-04-03T06:32:18;3.80;99.90
4530;DHT22;2277;51.626;7.516;2023-04-03T06:34:43;4.00;99.90
4530;DHT22;2277;51.626;7.516;2023-04-03T06:37:20;4.10;99.90
4530;DHT22;2277;51.626;7.516;2023-04-03T06:39:46;4.10;99.90
4530;DHT22;2277;51.626;7.516;2023-04-03T06:42:12;4.30;99.90
4530;DHT22;2277;51.626;7.516;2023-04-03T06:44:38;4.50;99.90
4530;DHT22;2277;51.626;7.516;2023-04-03T06:47:04;4.40;99.90
4530;DHT22;2277;51.626;7.516;2023-04-03T06:49:30;4.60;99.90
4530;DHT22;2277;51.626;7.516;2023-04-03T06:51:56;4.60;99.90
4530;DHT22;2277;51.626;7.516;2023-04-03T06:54:22;4.50;99.90
4530;DHT22;2277;51.626;7.516;2023-04-03T06:56:48;4.50;99.90
4530;DHT22;2277;51.626;7.516;2023-04-03T06:59:14;4.60;99.90
4530;DHT22;2277;51.626;7.516;2023-04-03T07:01:40;4.90;99.90
4530;DHT22;2277;51.626;7.516;2023-04-03T07:04:06;5.00;99.90
4530;DHT22;2277;51.626;7.516;2023-04-03T07:06:31;5.00;99.90
4530;DHT22;2277;51.626;7.516;2023-04-03T07:08:58;5.10;99.90
4530;DHT22;2277;51.626;7.516;2023-04-03T07:11:24;5.40;99.90
4530;DHT22;2277;51.626;7.516;2023-04-03T07:13:52;5.60;99.90
4530;DHT22;2277;51.626;7.516;2023-04-03T07:16:18;5.60;99.90
4530;DHT22;2277;51.626;7.516;2023-04-03T07:18:45;5.60;99.90
4530;DHT22;2277;51.626;7.516;2023-04-03T07:21:11;5.70;99.90
4530;DHT22;2277;51.626;7.516;2023-04-03T07:23:36;5.90;99.90
4530;DHT22;2277;51.626;7.516;2023-04-03T07:26:02;6.20;99.90
4530;DHT22;2277;51.626;7.516;2023-04-03T07:28:28;6.50;99.90
4530;DHT22;2277;51.626;7.516;2023-04-03T07:31:01;6.50;99.90
4530;DHT22;2277;51.626;7.516;2023-04-03T07:33:27;6.20;99.90
4530;DHT22;2277;51.626;7.516;2023-04-03T07:35:53;5.90;99.90
4530;DHT22;2277;51.626;7.516;2023-04-03T07:38:19;5.90;99.90
4530;DHT22;2277;51.626;7.516;2023-04-03T07:40:49;5.90;99.90
4530;DHT22;2277;51.626;7.516;2023-04-03T07:43:15;6.00;99.90
4530;DHT22;2277;51.626;7.516;2023-04-03T07:45:41;6.40;99.90
4530;DHT22;2277;51.626;7.516;2023-04-03T07:48:07;6.40;99.90
4530;DHT22;2277;51.626;7.516;2023-04-03T07:50:32;6.40;99.90
4530;DHT22;2277;51.626;7.516;2023-04-03T07:52:58;6.40;99.90
4530;DHT22;2277;51.626;7.516;2023-04-03T07:55:25;6.30;99.90
4530;DHT22;2277;51.626;7.516;2023-04-03T07:57:50;6.60;99.90
4530;DHT22;2277;51.626;7.516;2023-04-03T08:00:17;6.90;99.90
4530;DHT22;2277;51.626;7.516;2023-04-03T08:02:45;7.20;99.90
4530;DHT22;2277;51.626;7.516;2023-04-03T08:05:18;7.20;99.90
4530;DHT22;2277;51.626;7.516;2023-04-03T08:07:44;7.40;99.90
4530;DHT22;2277;51.626;7.516;2023-04-03T08:10:10;7.20;99.90
4530;DHT22;2277;51.626;7.516;2023-04-03T08:12:35;7.30;99.90
4530;DHT22;2277;51.626;7.516;2023-04-03T08:15:03;7.60;99.90
4530;DHT22;2277;51.626;7.516;2023-04-03T08:17:29;7.70;99.90
4530;DHT22;2277;51.626;7.516;2023-04-03T08:19:54;7.50;99.90
4530;DHT22;2277;51.626;7.516;2023-04-03T08:22:20;7.40;99.90
4530;DHT22;2277;51.626;7.516;2023-04-03T08:24:46;7.40;99.90
4530;DHT22;2277;51.626;7.516;2023-04-03T08:27:11;7.70;99.90
4530;DHT22;2277;51.626;7.516;2023-04-03T08:29:37;8.10;99.90
4530;DHT22;2277;51.626;7.516;2023-04-03T08:32:04;8.40;99.90
4530;DHT22;2277;51.626;7.516;2023-04-03T08:34:30;8.60;99.90
4530;DHT22;2277;51.626;7.516;2023-04-03T08:36:56;8.60;99.90
4530;DHT22;2277;51.626;7.516;2023-04-03T08:39:22;8.60;99.90
4530;DHT22;2277;51.626;7.516;2023-04-03T08:41:47;8.50;99.90
4530;DHT22;2277;51.626;7.516;2023-04-03T08:49:28;8.90;99.90
4530;DHT22;2277;51.626;7.516;2023-04-03T08:51:56;9.20;99.90
4530;DHT22;2277;51.626;7.516;2023-04-03T08:54:52;8.90;99.90
4530;DHT22;2277;51.626;7.516;2023-04-03T08:57:29;8.50;99.90
4530;DHT22;2277;51.626;7.516;2023-04-03T08:59:57;8.50;99.90
4530;DHT22;2277;51.626;7.516;2023-04-03T09:04:54;9.10;99.90
4530;DHT22;2277;51.626;7.516;2023-04-03T09:07:30;9.50;99.90
4530;DHT22;2277;51.626;7.516;2023-04-03T09:09:59;9.60;99.90
4530;DHT22;2277;51.626;7.516;2023-04-03T09:12:42;9.70;99.90
4530;DHT22;2277;51.626;7.516;2023-04-03T09:15:21;9.60;99.90
4530;DHT22;2277;51.626;7.516;2023-04-03T09:22:57;9.60;95.70
4530;DHT22;2277;51.626;7.516;2023-04-03T09:25:29;9.40;96.80
4530;DHT22;2277;51.626;7.516;2023-04-03T09:27:59;9.20;94.00
4530;DHT22;2277;51.626;7.516;2023-04-03T09:30:26;9.20;94.90
4530;DHT22;2277;51.626;7.516;2023-04-03T09:32:55;9.20;94.80
4530;DHT22;2277;51.626;7.516;2023-04-03T09:35:30;9.40;96.30
4530;DHT22;2277;51.626;7.516;2023-04-03T09:40:40;9.60;94.50
4530;DHT22;2277;51.626;7.516;2023-04-03T09:45:50;10.10;97.50
4530;DHT22;2277;51.626;7.516;2023-04-03T09:48:20;10.40;95.30
4530;DHT22;2277;51.626;7.516;2023-04-03T09:50:56;10.30;92.30
4530;DHT22;2277;51.626;7.516;2023-04-03T09:53:40;10.00;90.20
4530;DHT22;2277;51.626;7.516;2023-04-03T09:56:19;9.70;90.30
4530;DHT22;2277;51.626;7.516;2023-04-03T10:01:32;9.60;90.60
4530;DHT22;2277;51.626;7.516;2023-04-03T10:04:13;9.70;89.60
4530;DHT22;2277;51.626;7.516;2023-04-03T10:06:41;9.70;86.20
4530;DHT22;2277;51.626;7.516;2023-04-03T10:09:28;9.70;86.00
4530;DHT22;2277;51.626;7.516;2023-04-03T10:14:37;9.60;86.60
4530;DHT22;2277;51.626;7.516;2023-04-03T10:22:30;10.20;84.00
4530;DHT22;2277;51.626;7.516;2023-04-03T10:30:19;10.60;80.90
4530;DHT22;2277;51.626;7.516;2023-04-03T10:35:52;10.30;80.00
4530;DHT22;2277;51.626;7.516;2023-04-03T10:38:43;10.30;79.60
4530;DHT22;2277;51.626;7.516;2023-04-03T10:41:21;10.60;79.40
4530;DHT22;2277;51.626;7.516;2023-04-03T10:46:34;10.20;77.30
4530;DHT22;2277;51.626;7.516;2023-04-03T10:52:02;10.40;75.90
4530;DHT22;2277;51.626;7.516;2023-04-03T10:54:39;10.50;77.40
4530;DHT22;2277;51.626;7.516;2023-04-03T10:57:08;11.20;85.70
4530;DHT22;2277;51.626;7.516;2023-04-03T10:59:48;11.30;75.10
4530;DHT22;2277;51.626;7.516;2023-04-03T11:04:43;11.40;77.10
4530;DHT22;2277;51.626;7.516;2023-04-03T11:07:18;11.20;73.50
4530;DHT22;2277;51.626;7.516;2023-04-03T11:09:50;11.40;78.20
4530;DHT22;2277;51.626;7.516;2023-04-03T11:14:47;12.00;70.50
4530;DHT22;2277;51.626;7.516;2023-04-03T11:19:56;11.90;67.20
4530;DHT22;2277;51.626;7.516;2023-04-03T11:22:42;11.80;67.70
4530;DHT22;2277;51.626;7.516;2023-04-03T11:27:46;11.40;67.10
4530;DHT22;2277;51.626;7.516;2023-04-03T11:33:10;11.50;67.90
4530;DHT22;2277;51.626;7.516;2023-04-03T11:35:43;11.60;71.30
4530;DHT22;2277;51.626;7.516;2023-04-03T11:38:17;11.90;69.60
4530;DHT22;2277;51.626;7.516;2023-04-03T11:40:44;12.00;67.90
4530;DHT22;2277;51.626;7.516;2023-04-03T11:43:40;12.20;74.30
4530;DHT22;2277;51.626;7.516;2023-04-03T11:46:08;12.30;66.70
4530;DHT22;2277;51.626;7.516;2023-04-03T11:53:38;13.30;74.30
4530;DHT22;2277;51.626;7.516;2023-04-03T11:56:38;13.60;68.10
4530;DHT22;2277;51.626;7.516;2023-04-03T12:01:45;14.20;66.00
4530;DHT22;2277;51.626;7.516;2023-04-03T12:04:13;14.60;69.60
4530;DHT22;2277;51.626;7.516;2023-04-03T12:14:48;14.30;58.20
4530;DHT22;2277;51.626;7.516;2023-04-03T12:17:26;14.30;59.50
4530;DHT22;2277;51.626;7.516;2023-04-03T12:19:52;14.70;61.60
4530;DHT22;2277;51.626;7.516;2023-04-03T12:22:20;15.00;65.20
4530;DHT22;2277;51.626;7.516;2023-04-03T12:24:48;14.60;57.50
4530;DHT22;2277;51.626;7.516;2023-04-03T12:32:55;13.70;61.30
4530;DHT22;2277;51.626;7.516;2023-04-03T12:41:19;13.10;58.40
4530;DHT22;2277;51.626;7.516;2023-04-03T12:46:38;13.80;60.70
4530;DHT22;2277;51.626;7.516;2023-04-03T12:49:20;13.40;57.80
4530;DHT22;2277;51.626;7.516;2023-04-03T12:51:48;13.90;63.30
4530;DHT22;2277;51.626;7.516;2023-04-03T12:54:27;14.00;58.60
4530;DHT22;2277;51.626;7.516;2023-04-03T12:57:18;14.00;59.00
4530;DHT22;2277;51.626;7.516;2023-04-03T12:59:44;14.30;62.00
4530;DHT22;2277;51.626;7.516;2023-04-03T13:02:21;14.30;58.10
4530;DHT22;2277;51.626;7.516;2023-04-03T13:04:49;14.50;61.90
4530;DHT22;2277;51.626;7.516;2023-04-03T13:07:33;15.00;61.00
4530;DHT22;2277;51.626;7.516;2023-04-03T13:10:03;14.40;58.10
4530;DHT22;2277;51.626;7.516;2023-04-03T13:12:29;13.90;58.20
4530;DHT22;2277;51.626;7.516;2023-04-03T13:15:00;13.50;57.80
4530;DHT22;2277;51.626;7.516;2023-04-03T13:17:27;13.90;62.40
4530;DHT22;2277;51.626;7.516;2023-04-03T13:19:53;14.40;61.50
4530;DHT22;2277;51.626;7.516;2023-04-03T13:24:56;14.40;58.90
4530;DHT22;2277;51.626;7.516;2023-04-03T13:27:23;13.80;57.90
4530;DHT22;2277;51.626;7.516;2023-04-03T13:29:53;13.90;57.60
4530;DHT22;2277;51.626;7.516;2023-04-03T13:32:22;14.20;60.70
4530;DHT22;2277;51.626;7.516;2023-04-03T13:34:48;14.20;57.50
4530;DHT22;2277;51.626;7.516;2023-04-03T13:37:31;14.00;58.10
4530;DHT22;2277;51.626;7.516;2023-04-03T13:40:16;13.40;58.20
4530;DHT22;2277;51.626;7.516;2023-04-03T13:42:42;13.40;59.90
4530;DHT22;2277;51.626;7.516;2023-04-03T13:47:47;13.40;57.20
4530;DHT22;2277;51.626;7.516;2023-04-03T13:53:08;13.20;58.30
4530;DHT22;2277;51.626;7.516;2023-04-03T13:55:39;13.30;60.10
4530;DHT22;2277;51.626;7.516;2023-04-03T13:58:23;13.00;57.90
4530;DHT22;2277;51.626;7.516;2023-04-03T14:00:53;13.10;59.40
4530;DHT22;2277;51.626;7.516;2023-04-03T14:03:26;13.40;61.20
4530;DHT22;2277;51.626;7.516;2023-04-03T14:05:53;13.20;62.30
4530;DHT22;2277;51.626;7.516;2023-04-03T14:08:19;13.00;58.80
4530;DHT22;2277;51.626;7.516;2023-04-03T14:10:45;13.20;61.70
4530;DHT22;2277;51.626;7.516;2023-04-03T14:13:17;13.70;60.60
4530;DHT22;2277;51.626;7.516;2023-04-03T14:15:44;13.70;59.30
4530;DHT22;2277;51.626;7.516;2023-04-03T14:18:13;13.60;58.10
4530;DHT22;2277;51.626;7.516;2023-04-03T14:20:39;13.30;57.00
4530;DHT22;2277;51.626;7.516;2023-04-03T14:23:05;13.10;58.00
4530;DHT22;2277;51.626;7.516;2023-04-03T14:25:31;13.40;60.50
4530;DHT22;2277;51.626;7.516;2023-04-03T14:27:58;13.80;63.10
4530;DHT22;2277;51.626;7.516;2023-04-03T14:30:32;13.80;62.70
4530;DHT22;2277;51.626;7.516;2023-04-03T14:32:58;14.20;60.70
4530;DHT22;2277;51.626;7.516;2023-04-03T14:35:25;13.40;56.40
4530;DHT22;2277;51.626;7.516;2023-04-03T14:37:52;13.10;56.40
4530;DHT22;2277;51.626;7.516;2023-04-03T14:40:23;13.20;57.30
4530;DHT22;2277;51.626;7.516;2023-04-03T14:42:49;12.90;56.80
4530;DHT22;2277;51.626;7.516;2023-04-03T14:45:16;13.00;58.80
4530;DHT22;2277;51.626;7.516;2023-04-03T14:47:53;12.80;57.80
4530;DHT22;2277;51.626;7.516;2023-04-03T14:50:25;12.50;57.90
4530;DHT22;2277;51.626;7.516;2023-04-03T14:52:52;12.50;59.00
4530;DHT22;2277;51.626;7.516;2023-04-03T14:55:21;12.90;63.90
4530;DHT22;2277;51.626;7.516;2023-04-03T14:57:48;13.30;64.40
4530;DHT22;2277;51.626;7.516;2023-04-03T15:00:17;13.60;61.50
4530;DHT22;2277;51.626;7.516;2023-04-03T15:02:43;13.80;59.90
4530;DHT22;2277;51.626;7.516;2023-04-03T15:05:10;13.60;59.00
4530;DHT22;2277;51.626;7.516;2023-04-03T15:07:57;13.80;60.30
4530;DHT22;2277;51.626;7.516;2023-04-03T15:10:26;14.00;58.80
4530;DHT22;2277;51.626;7.516;2023-04-03T15:12:52;14.00;58.50
4530;DHT22;2277;51.626;7.516;2023-04-03T15:15:19;13.70;57.20
4530;DHT22;2277;51.626;7.516;2023-04-03T15:17:47;13.30;56.80
4530;DHT22;2277;51.626;7.516;2023-04-03T15:20:20;13.00;57.10
4530;DHT22;2277;51.626;7.516;2023-04-03T15:22:46;13.20;58.70
4530;DHT22;2277;51.626;7.516;2023-04-03T15:25:12;13.50;60.20
4530;DHT22;2277;51.626;7.516;2023-04-03T15:27:38;13.60;60.00
4530;DHT22;2277;51.626;7.516;2023-04-03T15:30:06;13.90;59.90
4530;DHT22;2277;51.626;7.516;2023-04-03T15:32:33;13.60;58.20
4530;DHT22;2277;51.626;7.516;2023-04-03T15:34:59;13.20;57.70
4530;DHT22;2277;51.626;7.516;2023-04-03T15:37:25;13.20;59.30
4530;DHT22;2277;51.626;7.516;2023-04-03T15:39:51;13.00;58.70
4530;DHT22;2277;51.626;7.516;2023-04-03T15:42:16;12.70;58.30
4530;DHT22;2277;51.626;7.516;2023-04-03T15:44:42;12.80;58.10
4530;DHT22;2277;51.626;7.516;2023-04-03T15:47:08;12.30;58.10
4530;DHT22;2277;51.626;7.516;2023-04-03T15:49:34;12.10;59.10
4530;DHT22;2277;51.626;7.516;2023-04-03T15:51:59;12.50;62.30
4530;DHT22;2277;51.626;7.516;2023-04-03T15:54:25;12.80;61.60
4530;DHT22;2277;51.626;7.516;2023-04-03T15:56:52;12.70;58.30
4530;DHT22;2277;51.626;7.516;2023-04-03T15:59:18;12.80;59.20
4530;DHT22;2277;51.626;7.516;2023-04-03T16:01:44;13.00;59.40
4530;DHT22;2277;51.626;7.516;2023-04-03T16:04:11;13.20;59.30
4530;DHT22;2277;51.626;7.516;2023-04-03T16:06:37;13.20;59.60
4530;DHT22;2277;51.626;7.516;2023-04-03T16:09:03;13.40;59.60
4530;DHT22;2277;51.626;7.516;2023-04-03T16:11:29;13.50;58.00
4530;DHT22;2277;51.626;7.516;2023-04-03T16:13:55;13.60;58.00
4530;DHT22;2277;51.626;7.516;2023-04-03T16:16:22;13.70;58.10
4530;DHT22;2277;51.626;7.516;2023-04-03T16:18:48;13.70;56.80
4530;DHT22;2277;51.626;7.516;2023-04-03T16:21:16;13.80;57.80
4530;DHT22;2277;51.626;7.516;2023-04-03T16:23:43;13.80;57.80
4530;DHT22;2277;51.626;7.516;2023-04-03T16:26:09;13.80;56.90
4530;DHT22;2277;51.626;7.516;2023-04-03T16:28:35;13.60;56.70
4530;DHT22;2277;51.626;7.516;2023-04-03T16:31:01;13.50;57.10
4530;DHT22;2277;51.626;7.516;2023-04-03T16:33:27;12.90;55.80
4530;DHT22;2277;51.626;7.516;2023-04-03T16:35:53;12.70;56.50
4530;DHT22;2277;51.626;7.516;2023-04-03T16:38:19;12.40;56.60
4530;DHT22;2277;51.626;7.516;2023-04-03T16:40:48;12.00;56.90
4530;DHT22;2277;51.626;7.516;2023-04-03T16:43:15;12.20;60.30
4530;DHT22;2277;51.626;7.516;2023-04-03T16:45:41;12.40;58.90
4530;DHT22;2277;51.626;7.516;2023-04-03T16:48:07;12.00;58.00
4530;DHT22;2277;51.626;7.516;2023-04-03T16:50:33;11.60;58.20
4530;DHT22;2277;51.626;7.516;2023-04-03T16:52:58;11.40;58.90
4530;DHT22;2277;51.626;7.516;2023-04-03T16:55:24;11.40;60.00
4530;DHT22;2277;51.626;7.516;2023-04-03T16:57:50;11.20;58.60
4530;DHT22;2277;51.626;7.516;2023-04-03T17:00:16;11.10;59.90
4530;DHT22;2277;51.626;7.516;2023-04-03T17:02:42;11.30;59.80
4530;DHT22;2277;51.626;7.516;2023-04-03T17:05:07;11.10;58.90
4530;DHT22;2277;51.626;7.516;2023-04-03T17:07:33;11.10;59.90
4530;DHT22;2277;51.626;7.516;2023-04-03T17:09:59;11.00;59.40
4530;DHT22;2277;51.626;7.516;2023-04-03T17:12:25;10.70;59.60
4530;DHT22;2277;51.626;7.516;2023-04-03T17:14:51;10.70;60.80
4530;DHT22;2277;51.626;7.516;2023-04-03T17:17:21;10.90;61.60
4530;DHT22;2277;51.626;7.516;2023-04-03T17:19:47;11.00;61.60
4530;DHT22;2277;51.626;7.516;2023-04-03T17:22:13;11.00;61.70
4530;DHT22;2277;51.626;7.516;2023-04-03T17:24:38;11.00;61.80
4530;DHT22;2277;51.626;7.516;2023-04-03T17:27:04;11.10;62.50
4530;DHT22;2277;51.626;7.516;2023-04-03T17:29:30;11.20;64.00
4530;DHT22;2277;51.626;7.516;2023-04-03T17:31:55;11.20;63.20
4530;DHT22;2277;51.626;7.516;2023-04-03T17:34:21;11.00;61.50
4530;DHT22;2277;51.626;7.516;2023-04-03T17:36:47;10.60;60.70
4530;DHT22;2277;51.626;7.516;2023-04-03T17:39:13;10.50;61.90
4530;DHT22;2277;51.626;7.516;2023-04-03T17:41:39;10.20;62.20
4530;DHT22;2277;51.626;7.516;2023-04-03T17:44:05;10.10;63.40
4530;DHT22;2277;51.626;7.516;2023-04-03T17:46:31;10.10;63.40
4530;DHT22;2277;51.626;7.516;2023-04-03T17:48:57;10.10;63.30
4530;DHT22;2277;51.626;7.516;2023-04-03T17:51:25;10.10;64.10
4530;DHT22;2277;51.626;7.516;2023-04-03T17:53:51;10.10;64.40
4530;DHT22;2277;51.626;7.516;2023-04-03T17:56:19;10.20;65.10
4530;DHT22;2277;51.626;7.516;2023-04-03T17:58:47;10.00;64.30
4530;DHT22;2277;51.626;7.516;2023-04-03T18:01:15;10.10;65.20